Time;durP1;ratioP1;P1;durP2;ratioP2;P2;SDS_P1;SDS_P2;PMS_P1;PMS_P2;Temp;Humidity;BMP_temperature;BMP_pressure;BME280_temperature;BME280_humidity;BME280_pressure;Samples;Min_cycle;Max_cycle;Signal;HPM_P1;HPM_P2
2021/12/24 00:00:37;;;;;;;38.38;23.27;;;;;;;;;;4785424;29;20124;-74
2021/12/24 00:03:06;;;;;;;39.17;23.88;;;;;;;;;;4798894;29;20122;-74
2021/12/24 00:05:34;;;;;;;41.70;25.42;;;;;;;;;;4802234;29;20047;-74
2021/12/24 00:08:02;;;;;;;47.97;26.52;;;;;;;;;;4797689;29;20504;-74
2021/12/24 00:10:31;;;;;;;42.47;25.35;;;;;;;;;;4796005;29;20129;-74
2021/12/24 00:13:05;;;;;;;36.70;22.85;;;;;;;;;;4797553;29;20315;-74
2021/12/24 00:16:18;;;;;;;33.88;21.80;;;;;;;;;;4821567;24;20077;-71
2021/12/24 00:18:40;;;;;;;37.38;24.70;;;;;;;;;;4817624;29;20555;-71
2021/12/24 00:35:16;;;;;;;33.75;21.58;;;;;;;;;;4801105;29;20554;-72
2021/12/24 00:37:45;;;;;;;41.03;25.67;;;;;;;;;;4795804;29;20059;-71
2021/12/24 00:40:18;;;;;;;40.28;24.42;;;;;;;;;;4797349;29;20099;-72
2021/12/24 00:42:47;;;;;;;42.70;26.95;;;;;;;;;;4782972;29;20067;-72
2021/12/24 00:45:15;;;;;;;35.53;23.30;;;;;;;;;;4796407;29;20340;-73
2021/12/24 00:47:43;;;;;;;34.97;21.73;;;;;;;;;;4798035;29;20046;-72
2021/12/24 00:50:15;;;;;;;38.38;24.60;;;;;;;;;;4784734;29;20050;-72
2021/12/24 00:55:12;;;;;;;43.85;25.98;;;;;;;;;;4785393;29;20046;-73
2021/12/24 00:57:42;;;;;;;38.88;24.05;;;;;;;;;;4796581;29;20126;-72
2021/12/24 01:00:14;;;;;;;35.30;22.65;;;;;;;;;;4823889;29;20088;-72
2021/12/24 01:02:42;;;;;;;47.90;27.20;;;;;;;;;;4798861;29;20092;-72
2021/12/24 01:05:09;;;;;;;45.72;25.95;;;;;;;;;;4783814;29;20050;-73
2021/12/24 01:07:39;;;;;;;33.58;21.70;;;;;;;;;;4799644;29;20054;-72
2021/12/24 01:10:07;;;;;;;36.17;24.02;;;;;;;;;;4800536;29;20054;-72
2021/12/24 01:12:35;;;;;;;33.38;21.95;;;;;;;;;;4806798;29;20053;-73
2021/12/24 01:15:03;;;;;;;43.67;25.05;;;;;;;;;;4832900;29;20575;-72
2021/12/24 01:17:43;;;;;;;43.67;26.10;;;;;;;;;;4794207;29;20121;-73
2021/12/24 01:20:43;;;;;;;39.72;24.40;;;;;;;;;;4804683;29;20049;-72
2021/12/24 01:25:49;;;;;;;34.08;21.00;;;;;;;;;;4796941;29;20155;-73
2021/12/24 01:42:57;;;;;;;33.80;22.58;;;;;;;;;;4798304;29;20070;-72
2021/12/24 01:45:00;;;;;;;41.50;25.02;;;;;;;;;;4793562;29;20098;-72
2021/12/24 01:47:29;;;;;;;40.15;24.27;;;;;;;;;;4806026;29;20539;-73
2021/12/24 01:49:57;;;;;;;28.02;18.60;;;;;;;;;;4781409;29;20130;-72
2021/12/24 01:52:25;;;;;;;41.13;25.20;;;;;;;;;;4792637;29;20156;-72
2021/12/24 01:54:55;;;;;;;39.47;24.13;;;;;;;;;;4782516;29;20058;-72
2021/12/24 01:57:23;;;;;;;36.38;22.80;;;;;;;;;;4794698;29;20051;-71
2021/12/24 01:59:51;;;;;;;39.38;23.52;;;;;;;;;;4778580;29;20489;-72
2021/12/24 02:02:18;;;;;;;53.40;27.67;;;;;;;;;;4777768;29;20070;-72
2021/12/24 02:04:46;;;;;;;46.85;26.38;;;;;;;;;;4779380;30;20070;-72
2021/12/24 02:07:13;;;;;;;45.05;25.35;;;;;;;;;;4762451;30;20048;-72
2021/12/24 02:09:41;;;;;;;39.20;22.33;;;;;;;;;;4778573;29;20299;-72
2021/12/24 02:12:10;;;;;;;48.70;26.35;;;;;;;;;;4779797;29;20087;-73
2021/12/24 02:14:40;;;;;;;34.05;20.75;;;;;;;;;;4778062;30;20530;-72
2021/12/24 02:28:24;;;;;;;41.83;24.95;;;;;;;;;;4781139;29;20470;-72
2021/12/24 02:30:53;;;;;;;36.97;24.17;;;;;;;;;;4796494;29;20129;-73
2021/12/24 02:33:20;;;;;;;39.47;22.40;;;;;;;;;;4804516;29;20099;-73
2021/12/24 02:35:49;;;;;;;32.58;19.27;;;;;;;;;;4820274;29;20121;-73
2021/12/24 02:38:17;;;;;;;32.83;20.50;;;;;;;;;;4807036;29;20046;-73
2021/12/24 02:40:45;;;;;;;47.00;27.05;;;;;;;;;;4816970;29;20146;-73
2021/12/24 02:43:16;;;;;;;40.88;25.63;;;;;;;;;;4831831;29;20451;-72
2021/12/24 02:45:45;;;;;;;43.57;25.50;;;;;;;;;;4817417;29;20085;-74
2021/12/24 02:53:59;;;;;;;38.92;23.67;;;;;;;;;;4821430;29;20106;-73
2021/12/24 02:56:29;;;;;;;55.05;29.30;;;;;;;;;;4817494;29;20112;-73
2021/12/24 02:58:59;;;;;;;43.67;25.02;;;;;;;;;;4819089;29;20096;-72
2021/12/24 03:01:29;;;;;;;43.20;25.77;;;;;;;;;;4826243;29;20058;-72
2021/12/24 03:03:57;;;;;;;31.88;20.23;;;;;;;;;;4818148;29;20488;-72
2021/12/24 03:06:29;;;;;;;42.30;24.88;;;;;;;;;;4820909;29;20046;-72
2021/12/24 03:08:56;;;;;;;35.97;21.55;;;;;;;;;;4800582;29;20054;-73
2021/12/24 03:11:24;;;;;;;36.28;22.17;;;;;;;;;;4816911;29;20440;-72
2021/12/24 03:13:54;;;;;;;32.33;20.88;;;;;;;;;;4822235;29;20499;-72
2021/12/24 03:16:22;;;;;;;42.75;24.55;;;;;;;;;;4804380;29;20116;-73
2021/12/24 03:18:49;;;;;;;43.40;23.83;;;;;;;;;;4820206;29;20047;-73
2021/12/24 03:21:29;;;;;;;39.97;24.40;;;;;;;;;;4817504;29;20131;-73
2021/12/24 03:26:35;;;;;;;42.10;24.63;;;;;;;;;;4810296;29;20119;-73
2021/12/24 03:29:06;;;;;;;42.47;25.90;;;;;;;;;;4824231;29;20083;-73
2021/12/24 03:31:34;;;;;;;36.40;21.95;;;;;;;;;;4823936;29;20065;-72
2021/12/24 03:34:01;;;;;;;42.05;23.65;;;;;;;;;;4824002;29;20061;-72
2021/12/24 03:36:29;;;;;;;43.75;24.55;;;;;;;;;;4808152;29;20062;-72
2021/12/24 03:38:58;;;;;;;39.17;23.63;;;;;;;;;;4804261;29;20054;-73
2021/12/24 03:41:26;;;;;;;33.97;23.13;;;;;;;;;;4809036;29;20065;-72
2021/12/24 03:43:54;;;;;;;44.70;26.20;;;;;;;;;;4818434;29;20062;-72
2021/12/24 03:46:30;;;;;;;37.50;23.73;;;;;;;;;;4806978;29;20077;-72
2021/12/24 03:49:03;;;;;;;41.95;22.80;;;;;;;;;;4801039;29;20133;-72
2021/12/24 03:56:48;;;;;;;35.38;19.90;;;;;;;;;;4801178;29;20061;-72
2021/12/24 03:59:36;;;;;;;45.42;26.02;;;;;;;;;;4817375;29;20133;-73
2021/12/24 04:02:21;;;;;;;34.00;21.88;;;;;;;;;;4817291;29;20062;-72
2021/12/24 04:05:15;;;;;;;33.95;22.58;;;;;;;;;;4803634;29;20056;-72
2021/12/24 04:08:15;;;;;;;30.73;19.30;;;;;;;;;;4812579;29;20064;-72
2021/12/24 04:11:00;;;;;;;40.13;24.83;;;;;;;;;;4809750;29;20144;-72
2021/12/24 04:13:32;;;;;;;34.83;20.33;;;;;;;;;;4812961;29;20054;-72
2021/12/24 04:15:59;;;;;;;38.60;23.25;;;;;;;;;;4835821;29;20046;-72
2021/12/24 04:26:35;;;;;;;35.60;22.23;;;;;;;;;;4803359;29;20126;-71
2021/12/24 04:29:03;;;;;;;33.17;20.95;;;;;;;;;;4815622;29;20046;-72
2021/12/24 04:34:33;;;;;;;40.00;24.27;;;;;;;;;;4821337;29;20066;-72
2021/12/24 05:04:55;;;;;;;42.33;24.05;;;;;;;;;;4792385;29;20382;-72
2021/12/24 05:10:34;;;;;;;49.47;24.90;;;;;;;;;;4789282;29;20461;-72
2021/12/24 05:13:01;;;;;;;41.63;23.42;;;;;;;;;;4798570;29;20146;-73
2021/12/24 05:15:41;;;;;;;33.58;21.55;;;;;;;;;;4782361;29;20054;-72
2021/12/24 05:18:33;;;;;;;47.90;25.50;;;;;;;;;;4783870;29;20123;-72
2021/12/24 05:21:37;;;;;;;43.22;24.13;;;;;;;;;;4801151;29;20164;-72
2021/12/24 05:24:06;;;;;;;48.13;25.42;;;;;;;;;;4829634;29;20045;-73
2021/12/24 05:26:35;;;;;;;58.83;27.63;;;;;;;;;;4819809;29;20050;-73
2021/12/24 05:29:03;;;;;;;46.67;24.23;;;;;;;;;;4806950;29;20038;-72
2021/12/24 05:31:31;;;;;;;50.67;26.50;;;;;;;;;;4813389;29;20472;-73
2021/12/24 05:33:59;;;;;;;56.60;26.42;;;;;;;;;;4799848;29;20055;-72
2021/12/24 05:36:27;;;;;;;51.95;24.90;;;;;;;;;;4822603;29;20447;-73
2021/12/24 05:38:56;;;;;;;38.85;21.67;;;;;;;;;;4817166;29;20077;-72
2021/12/24 05:41:23;;;;;;;51.20;25.15;;;;;;;;;;4815297;29;20081;-73
2021/12/24 05:43:51;;;;;;;42.78;23.88;;;;;;;;;;4818505;29;20054;-72
2021/12/24 05:46:26;;;;;;;43.78;24.88;;;;;;;;;;4807583;29;20095;-71
2021/12/24 05:49:05;;;;;;;53.85;25.30;;;;;;;;;;4814611;29;20055;-72
2021/12/24 05:51:33;;;;;;;62.28;26.45;;;;;;;;;;4805473;29;20056;-72
2021/12/24 05:54:24;;;;;;;53.50;25.48;;;;;;;;;;4823280;29;20069;-73
2021/12/24 05:56:54;;;;;;;59.78;27.30;;;;;;;;;;4816457;29;20077;-72
2021/12/24 05:59:21;;;;;;;42.70;24.65;;;;;;;;;;4815943;29;20516;-71
2021/12/24 06:01:49;;;;;;;47.67;26.58;;;;;;;;;;4824411;29;20339;-72
2021/12/24 06:04:16;;;;;;;64.32;30.33;;;;;;;;;;4816768;29;20560;-72
2021/12/24 06:06:44;;;;;;;50.53;29.20;;;;;;;;;;4821022;29;20530;-72
2021/12/24 06:09:11;;;;;;;70.38;35.15;;;;;;;;;;4819372;29;20233;-72
2021/12/24 06:11:38;;;;;;;46.13;27.45;;;;;;;;;;4821106;29;20076;-72
2021/12/24 06:14:11;;;;;;;47.63;27.98;;;;;;;;;;4824282;29;20105;-72
2021/12/24 06:16:58;;;;;;;41.08;26.58;;;;;;;;;;4832948;24;20058;-75
2021/12/24 06:19:26;;;;;;;27.52;19.42;;;;;;;;;;4817957;29;20138;-76
2021/12/24 06:21:54;;;;;;;49.90;27.20;;;;;;;;;;4803149;29;20538;-76
2021/12/24 06:24:21;;;;;;;38.08;23.13;;;;;;;;;;4803917;29;20385;-75
2021/12/24 06:26:49;;;;;;;50.25;26.23;;;;;;;;;;4803752;29;20054;-75
2021/12/24 06:29:17;;;;;;;53.65;28.05;;;;;;;;;;4808472;29;20186;-75
2021/12/24 06:31:44;;;;;;;40.88;24.58;;;;;;;;;;4801876;29;20046;-76
2021/12/24 06:34:12;;;;;;;45.22;24.45;;;;;;;;;;4807181;29;20058;-75
2021/12/24 06:36:42;;;;;;;36.83;23.83;;;;;;;;;;4804222;29;20070;-76
2021/12/24 06:39:10;;;;;;;49.40;25.00;;;;;;;;;;4802571;29;20131;-76
2021/12/24 06:41:37;;;;;;;43.72;24.42;;;;;;;;;;4801541;29;20163;-75
2021/12/24 06:44:09;;;;;;;48.95;24.58;;;;;;;;;;4802090;29;20097;-76
2021/12/24 06:46:37;;;;;;;35.42;21.58;;;;;;;;;;4805341;29;20108;-76
2021/12/24 06:49:05;;;;;;;50.30;27.98;;;;;;;;;;4803236;29;20104;-75
2021/12/24 06:51:32;;;;;;;39.17;24.23;;;;;;;;;;4800410;29;20063;-76
2021/12/24 06:53:59;;;;;;;37.42;22.83;;;;;;;;;;4803931;29;20134;-75
2021/12/24 06:56:28;;;;;;;38.15;24.77;;;;;;;;;;4805116;29;20357;-76
2021/12/24 06:58:55;;;;;;;34.63;22.30;;;;;;;;;;4816418;29;20107;-75
2021/12/24 07:01:24;;;;;;;34.58;23.25;;;;;;;;;;4799905;29;20428;-75
2021/12/24 07:03:53;;;;;;;47.38;27.17;;;;;;;;;;4798819;29;20050;-75
2021/12/24 07:06:22;;;;;;;43.75;26.17;;;;;;;;;;4824835;29;20479;-75
2021/12/24 07:08:49;;;;;;;59.28;30.35;;;;;;;;;;4796764;29;20126;-75
2021/12/24 07:11:17;;;;;;;40.53;23.17;;;;;;;;;;4791536;29;20162;-75
2021/12/24 07:13:44;;;;;;;59.63;28.15;;;;;;;;;;4779649;29;20529;-75
2021/12/24 07:16:11;;;;;;;53.70;27.85;;;;;;;;;;4802634;29;20615;-75
2021/12/24 07:18:40;;;;;;;47.17;25.77;;;;;;;;;;4803235;29;20073;-75
2021/12/24 07:21:08;;;;;;;61.65;27.10;;;;;;;;;;4812764;29;20623;-75
2021/12/24 07:23:35;;;;;;;51.42;26.23;;;;;;;;;;4799259;29;20074;-77
2021/12/24 07:26:03;;;;;;;41.05;22.58;;;;;;;;;;4808757;29;20050;-79
2021/12/24 07:28:30;;;;;;;39.67;23.80;;;;;;;;;;4805339;29;20074;-80
2021/12/24 07:30:57;;;;;;;46.78;27.40;;;;;;;;;;4796835;29;20055;-78
2021/12/24 07:33:25;;;;;;;44.10;27.02;;;;;;;;;;4796986;29;20074;-82
2021/12/24 07:35:52;;;;;;;71.45;33.63;;;;;;;;;;4817114;29;20070;-79
2021/12/24 07:38:20;;;;;;;54.05;27.80;;;;;;;;;;4801718;29;20043;-75
2021/12/24 07:40:47;;;;;;;44.22;25.40;;;;;;;;;;4799360;29;20500;-75
2021/12/24 07:43:15;;;;;;;56.83;28.17;;;;;;;;;;4790041;29;20207;-75
2021/12/24 07:45:44;;;;;;;43.97;25.05;;;;;;;;;;4799046;29;20067;-75
2021/12/24 07:48:15;;;;;;;36.60;23.45;;;;;;;;;;4802726;29;20046;-76
2021/12/24 07:53:13;;;;;;;45.60;23.95;;;;;;;;;;4795090;29;20141;-75
2021/12/24 07:55:40;;;;;;;43.42;24.52;;;;;;;;;;4797902;29;20066;-75
2021/12/24 07:58:08;;;;;;;48.88;27.02;;;;;;;;;;4795941;29;20128;-75
2021/12/24 08:00:37;;;;;;;52.13;28.55;;;;;;;;;;4799146;29;20058;-75
2021/12/24 08:03:05;;;;;;;41.88;23.98;;;;;;;;;;4804638;29;20043;-75
2021/12/24 08:05:34;;;;;;;37.38;20.92;;;;;;;;;;4799325;29;20062;-76
2021/12/24 08:08:02;;;;;;;51.28;26.77;;;;;;;;;;4794822;29;20047;-75
2021/12/24 08:10:34;;;;;;;42.97;24.73;;;;;;;;;;4797855;29;20043;-75
2021/12/24 08:13:02;;;;;;;56.42;27.73;;;;;;;;;;4800744;29;20111;-75
2021/12/24 08:15:30;;;;;;;38.50;23.65;;;;;;;;;;4794640;29;20065;-76
2021/12/24 08:17:57;;;;;;;44.47;24.85;;;;;;;;;;4800076;29;20053;-75
2021/12/24 08:20:26;;;;;;;55.53;28.70;;;;;;;;;;4790877;29;20182;-75
2021/12/24 08:22:55;;;;;;;50.78;25.98;;;;;;;;;;4794380;29;20372;-75
2021/12/24 08:25:24;;;;;;;62.13;29.80;;;;;;;;;;4806222;29;20138;-75
2021/12/24 08:27:51;;;;;;;50.03;27.23;;;;;;;;;;4790594;29;20436;-75
2021/12/24 08:30:19;;;;;;;44.72;27.10;;;;;;;;;;4795435;29;20038;-75
2021/12/24 08:32:56;;;;;;;65.00;33.95;;;;;;;;;;4797537;29;20141;-75
2021/12/24 08:35:24;;;;;;;74.22;37.80;;;;;;;;;;4798885;29;20054;-75
2021/12/24 08:37:51;;;;;;;82.68;41.03;;;;;;;;;;4784188;29;20474;-75
2021/12/24 08:40:19;;;;;;;84.97;41.28;;;;;;;;;;4797846;29;20046;-76
2021/12/24 08:42:47;;;;;;;61.22;34.03;;;;;;;;;;4796233;29;20050;-75
2021/12/24 08:45:16;;;;;;;66.35;35.30;;;;;;;;;;4798444;29;20150;-75
2021/12/24 08:47:44;;;;;;;68.75;35.65;;;;;;;;;;4799660;29;20082;-76
2021/12/24 08:50:13;;;;;;;53.40;30.92;;;;;;;;;;4798599;29;20182;-76
2021/12/24 08:52:43;;;;;;;47.95;28.23;;;;;;;;;;4798797;29;20053;-75
2021/12/24 08:55:14;;;;;;;64.38;33.10;;;;;;;;;;4799661;29;20104;-75
2021/12/24 08:57:41;;;;;;;51.20;32.10;;;;;;;;;;4799437;29;20066;-75
2021/12/24 09:00:10;;;;;;;69.28;36.95;;;;;;;;;;4798281;29;20062;-76
2021/12/24 09:02:38;;;;;;;76.80;42.03;;;;;;;;;;4798744;29;20173;-75
2021/12/24 09:05:07;;;;;;;71.90;37.22;;;;;;;;;;4802788;29;20127;-75
2021/12/24 09:07:35;;;;;;;64.05;35.28;;;;;;;;;;4785099;29;20361;-75
2021/12/24 09:10:04;;;;;;;62.03;37.97;;;;;;;;;;4805510;29;20353;-75
2021/12/24 09:12:31;;;;;;;42.10;27.73;;;;;;;;;;4799975;29;20067;-75
2021/12/24 09:14:58;;;;;;;51.53;29.05;;;;;;;;;;4800443;29;20122;-75
2021/12/24 09:17:28;;;;;;;42.22;28.17;;;;;;;;;;4800696;29;20050;-75
2021/12/24 09:19:56;;;;;;;50.00;27.88;;;;;;;;;;4800549;29;20496;-76
2021/12/24 09:22:30;;;;;;;49.75;29.00;;;;;;;;;;4800353;29;20384;-76
2021/12/24 09:24:57;;;;;;;43.92;28.98;;;;;;;;;;4802131;29;20043;-75
2021/12/24 09:27:25;;;;;;;68.75;34.88;;;;;;;;;;4800290;29;20058;-76
2021/12/24 09:29:52;;;;;;;62.08;34.30;;;;;;;;;;4800044;29;20526;-75
2021/12/24 09:32:20;;;;;;;56.13;30.40;;;;;;;;;;4807981;29;20159;-76
2021/12/24 09:34:47;;;;;;;53.13;30.23;;;;;;;;;;4801828;29;20047;-76
2021/12/24 09:37:15;;;;;;;41.78;27.23;;;;;;;;;;4800841;29;20103;-76
2021/12/24 09:39:42;;;;;;;44.60;28.08;;;;;;;;;;4800285;29;20082;-75
2021/12/24 09:42:10;;;;;;;40.28;25.40;;;;;;;;;;4799839;29;20057;-75
2021/12/24 09:44:37;;;;;;;51.15;29.02;;;;;;;;;;4801722;29;20046;-76
2021/12/24 09:47:06;;;;;;;45.80;28.27;;;;;;;;;;4799347;29;20141;-73
2021/12/24 09:49:34;;;;;;;50.75;28.13;;;;;;;;;;4807962;29;20135;-73
2021/12/24 09:52:02;;;;;;;41.10;25.90;;;;;;;;;;4800358;29;20047;-76
2021/12/24 09:54:29;;;;;;;56.00;30.05;;;;;;;;;;4801869;29;20043;-76
2021/12/24 09:56:57;;;;;;;50.60;28.77;;;;;;;;;;4784703;29;20055;-76
2021/12/24 09:59:25;;;;;;;46.20;26.52;;;;;;;;;;4815995;29;20125;-76
2021/12/24 10:01:57;;;;;;;44.40;26.35;;;;;;;;;;4816728;29;20511;-75
2021/12/24 10:04:26;;;;;;;39.47;25.73;;;;;;;;;;4801470;29;20043;-73
2021/12/24 10:06:59;;;;;;;42.28;27.02;;;;;;;;;;4809489;29;20070;-73
2021/12/24 10:09:32;;;;;;;42.03;25.98;;;;;;;;;;4813449;29;20047;-75
2021/12/24 10:11:59;;;;;;;;;;;;;;;;;;4801644;29;20054;-75
2021/12/24 10:14:30;;;;;;;50.40;27.40;;;;;;;;;;4807210;29;19936;-74
2021/12/24 10:16:59;;;;;;;47.03;26.90;;;;;;;;;;4830896;29;20043;-73
2021/12/24 10:19:26;;;;;;;43.35;27.92;;;;;;;;;;4808234;29;20051;-74
2021/12/24 10:21:59;;;;;;;50.83;29.60;;;;;;;;;;4797638;29;20061;-74
2021/12/24 10:24:26;;;;;;;43.20;27.20;;;;;;;;;;4800103;29;20049;-74
2021/12/24 10:26:56;;;;;;;56.60;32.65;;;;;;;;;;4800016;29;20561;-74
2021/12/24 10:29:31;;;;;;;48.92;30.77;;;;;;;;;;4797675;29;20142;-74
2021/12/24 10:32:00;;;;;;;53.08;30.88;;;;;;;;;;4783953;29;20454;-74
2021/12/24 10:34:30;;;;;;;48.40;30.88;;;;;;;;;;4801405;29;20126;-75
2021/12/24 10:36:59;;;;;;;44.72;30.10;;;;;;;;;;4784608;29;20512;-74
2021/12/24 10:39:30;;;;;;;46.92;28.98;;;;;;;;;;4783886;29;20062;-75
2021/12/24 10:41:59;;;;;;;66.70;35.38;;;;;;;;;;4796983;29;20408;-75
2021/12/24 10:44:28;;;;;;;44.25;28.05;;;;;;;;;;4784079;29;20142;-75
2021/12/24 10:46:59;;;;;;;46.28;28.50;;;;;;;;;;4800345;29;20054;-75
2021/12/24 10:55:04;;;;;;;73.70;36.55;;;;;;;;;;4799472;29;20096;-75
2021/12/24 10:57:33;;;;;;;48.53;31.00;;;;;;;;;;4799718;29;20077;-74
2021/12/24 11:00:04;;;;;;;83.47;39.17;;;;;;;;;;4785346;29;20082;-74
2021/12/24 11:02:33;;;;;;;61.90;31.67;;;;;;;;;;4802047;29;20144;-74
2021/12/24 11:05:02;;;;;;;49.58;29.02;;;;;;;;;;4799061;29;20051;-74
2021/12/24 11:07:35;;;;;;;72.80;36.40;;;;;;;;;;4785860;29;20138;-74
2021/12/24 11:10:05;;;;;;;39.50;26.95;;;;;;;;;;4802307;29;20121;-74
2021/12/24 11:12:40;;;;;;;71.25;35.55;;;;;;;;;;4803244;29;20050;-74
2021/12/24 11:15:25;;;;;;;39.40;25.55;;;;;;;;;;4807984;29;20050;-74
2021/12/24 11:17:53;;;;;;;52.47;32.50;;;;;;;;;;4808526;29;20054;-74
2021/12/24 11:20:21;;;;;;;44.78;29.92;;;;;;;;;;4799224;29;20146;-74
2021/12/24 11:22:55;;;;;;;50.97;32.05;;;;;;;;;;4793784;29;20290;-74
2021/12/24 11:25:23;;;;;;;56.22;36.47;;;;;;;;;;4800665;29;20147;-74
2021/12/24 11:27:51;;;;;;;58.08;36.28;;;;;;;;;;4786767;29;20090;-74
2021/12/24 11:30:19;;;;;;;64.40;39.70;;;;;;;;;;4799469;29;20190;-74
2021/12/24 11:32:46;;;;;;;67.90;41.80;;;;;;;;;;4803884;29;20042;-74
2021/12/24 11:35:14;;;;;;;78.85;46.30;;;;;;;;;;4801391;29;20407;-74
2021/12/24 11:37:44;;;;;;;65.95;42.97;;;;;;;;;;4808385;29;20134;-74
2021/12/24 11:40:16;;;;;;;58.63;37.65;;;;;;;;;;4785043;29;20472;-74
2021/12/24 11:42:44;;;;;;;70.15;42.33;;;;;;;;;;4802771;29;20082;-74
2021/12/24 11:45:12;;;;;;;63.85;38.70;;;;;;;;;;4803442;29;20248;-74
2021/12/24 11:47:40;;;;;;;60.67;39.15;;;;;;;;;;4786249;29;20058;-74
2021/12/24 11:50:07;;;;;;;62.33;38.42;;;;;;;;;;4803397;29;20043;-75
2021/12/24 11:52:35;;;;;;;72.35;42.10;;;;;;;;;;4801398;29;20111;-74
2021/12/24 11:55:03;;;;;;;61.03;38.20;;;;;;;;;;4809278;29;20479;-75
2021/12/24 11:57:30;;;;;;;80.63;42.70;;;;;;;;;;4806921;29;20163;-74
2021/12/24 11:59:58;;;;;;;87.25;43.15;;;;;;;;;;4803651;29;20042;-74
2021/12/24 12:02:36;;;;;;;67.30;37.85;;;;;;;;;;4800909;29;20190;-74
2021/12/24 12:05:17;;;;;;;60.38;35.45;;;;;;;;;;4803942;29;20432;-74
2021/12/24 12:07:45;;;;;;;46.83;31.37;;;;;;;;;;4829196;29;20124;-74
2021/12/24 12:10:13;;;;;;;66.35;38.60;;;;;;;;;;4819513;29;20338;-74
2021/12/24 12:12:41;;;;;;;66.72;37.92;;;;;;;;;;4807244;29;20131;-74
2021/12/24 12:15:21;;;;;;;60.47;37.72;;;;;;;;;;4802654;29;20047;-74
2021/12/24 12:17:50;;;;;;;66.25;41.00;;;;;;;;;;4794634;29;20055;-73
2021/12/24 12:20:41;;;;;;;65.80;39.20;;;;;;;;;;4797939;29;20122;-72
2021/12/24 12:23:15;;;;;;;76.65;41.85;;;;;;;;;;4765692;30;20052;-72
2021/12/24 12:25:42;;;;;;;65.85;38.28;;;;;;;;;;4770506;30;20054;-73
2021/12/24 12:28:15;;;;;;;59.30;36.15;;;;;;;;;;4784714;30;20083;-72
2021/12/24 12:30:50;;;;;;;48.25;34.05;;;;;;;;;;4778456;29;20062;-73
2021/12/24 12:33:19;;;;;;;54.33;34.85;;;;;;;;;;4785071;29;20560;-72
2021/12/24 12:35:48;;;;;;;53.28;34.85;;;;;;;;;;4783186;30;20548;-72
2021/12/24 12:38:30;;;;;;;67.43;39.65;;;;;;;;;;4784569;29;20492;-73
2021/12/24 12:41:16;;;;;;;61.13;36.65;;;;;;;;;;4783597;29;20134;-73
2021/12/24 12:43:43;;;;;;;59.15;35.53;;;;;;;;;;4784788;30;20053;-73
2021/12/24 12:46:18;;;;;;;48.97;31.17;;;;;;;;;;4783148;29;20039;-72
2021/12/24 12:48:48;;;;;;;46.22;30.85;;;;;;;;;;4784241;29;20051;-72
2021/12/24 12:51:19;;;;;;;58.95;34.63;;;;;;;;;;4783087;29;20100;-73
2021/12/24 12:53:48;;;;;;;42.15;27.98;;;;;;;;;;4783659;29;20477;-72
2021/12/24 12:56:20;;;;;;;58.33;33.67;;;;;;;;;;4782422;30;20071;-73
2021/12/24 12:58:57;;;;;;;48.97;31.45;;;;;;;;;;4782430;29;20070;-72
2021/12/24 13:01:24;;;;;;;56.58;33.88;;;;;;;;;;4782513;29;20057;-72
2021/12/24 13:04:09;;;;;;;56.83;34.30;;;;;;;;;;4784843;29;20055;-73
2021/12/24 13:06:36;;;;;;;66.18;37.63;;;;;;;;;;4783867;29;20485;-72
2021/12/24 13:09:05;;;;;;;71.93;40.83;;;;;;;;;;4784049;29;20150;-73
2021/12/24 13:11:35;;;;;;;69.65;39.13;;;;;;;;;;4783235;29;20512;-73
2021/12/24 13:14:03;;;;;;;74.68;39.03;;;;;;;;;;4787070;29;20126;-73
2021/12/24 13:16:43;;;;;;;72.03;37.55;;;;;;;;;;4782452;29;20126;-73
2021/12/24 13:24:18;;;;;;;62.20;35.25;;;;;;;;;;4784278;29;20108;-72
2021/12/24 13:26:48;;;;;;;74.25;38.70;;;;;;;;;;4782415;30;20081;-74
2021/12/24 13:29:23;;;;;;;62.15;39.22;;;;;;;;;;4783800;29;20075;-74
2021/12/24 13:31:54;;;;;;;54.80;36.83;;;;;;;;;;4780880;29;20496;-72
2021/12/24 13:34:23;;;;;;;54.78;35.22;;;;;;;;;;4785516;29;20600;-74
2021/12/24 13:36:50;;;;;;;66.93;41.67;;;;;;;;;;4787880;29;20135;-72
2021/12/24 13:39:19;;;;;;;62.63;38.88;;;;;;;;;;4787164;29;20072;-72
2021/12/24 13:41:47;;;;;;;64.72;36.80;;;;;;;;;;4788499;29;20115;-73
2021/12/24 13:44:26;;;;;;;64.30;36.95;;;;;;;;;;4788459;29;20085;-73
2021/12/24 13:46:58;;;;;;;58.50;34.65;;;;;;;;;;4789159;29;20070;-72
2021/12/24 13:55:18;;;;;;;49.75;34.03;;;;;;;;;;4802742;29;20085;-74
2021/12/24 13:57:52;;;;;;;52.03;33.65;;;;;;;;;;4789000;29;20417;-74
2021/12/24 14:00:20;;;;;;;49.78;32.53;;;;;;;;;;4796377;29;20458;-73
2021/12/24 14:02:54;;;;;;;61.08;36.75;;;;;;;;;;4816863;29;20082;-73
2021/12/24 14:05:22;;;;;;;46.17;31.95;;;;;;;;;;4805012;29;20050;-73
2021/12/24 14:08:05;;;;;;;77.47;42.15;;;;;;;;;;4805312;29;20097;-72
2021/12/24 14:10:32;;;;;;;63.78;39.88;;;;;;;;;;4799043;29;20070;-73
2021/12/24 14:13:06;;;;;;;83.18;43.35;;;;;;;;;;4802160;29;20542;-73
2021/12/24 14:15:46;;;;;;;69.82;39.42;;;;;;;;;;4784047;29;20530;-73
2021/12/24 14:18:31;;;;;;;69.07;38.92;;;;;;;;;;4809421;29;20416;-72
2021/12/24 14:23:32;;;;;;;83.07;40.47;;;;;;;;;;4800148;29;20150;-73
2021/12/24 14:26:00;;;;;;;70.43;35.20;;;;;;;;;;4802701;29;20078;-72
2021/12/24 14:28:28;;;;;;;85.10;42.33;;;;;;;;;;4803511;29;20145;-72
2021/12/24 14:30:59;;;;;;;69.25;36.90;;;;;;;;;;4794931;29;20134;-73
2021/12/24 14:33:27;;;;;;;72.13;36.42;;;;;;;;;;4788228;29;20097;-72
2021/12/24 14:35:56;;;;;;;74.13;37.25;;;;;;;;;;4785725;29;20147;-72
2021/12/24 14:38:24;;;;;;;84.78;41.58;;;;;;;;;;4785459;29;20493;-73
2021/12/24 14:40:56;;;;;;;74.25;36.88;;;;;;;;;;4788754;29;20542;-73
2021/12/24 14:43:24;;;;;;;67.95;36.60;;;;;;;;;;4786193;29;20118;-72
2021/12/24 14:45:52;;;;;;;70.70;36.83;;;;;;;;;;4785384;29;20285;-72
2021/12/24 14:48:21;;;;;;;97.35;42.72;;;;;;;;;;4792846;29;20046;-73
2021/12/24 14:50:58;;;;;;;87.53;37.78;;;;;;;;;;4798626;29;20078;-73
2021/12/24 14:53:26;;;;;;;91.72;39.40;;;;;;;;;;4793354;29;20047;-73
2021/12/24 14:55:54;;;;;;;70.35;36.85;;;;;;;;;;4792761;29;20433;-73
2021/12/24 14:58:38;;;;;;;95.40;42.40;;;;;;;;;;4790649;29;20066;-73
2021/12/24 15:01:07;;;;;;;85.53;42.78;;;;;;;;;;4786937;29;20442;-72
2021/12/24 15:03:35;;;;;;;71.28;40.45;;;;;;;;;;4796299;29;20044;-72
2021/12/24 15:06:14;;;;;;;77.45;40.35;;;;;;;;;;4786085;29;20309;-72
2021/12/24 15:08:42;;;;;;;77.53;40.33;;;;;;;;;;4795091;29;20058;-72
2021/12/24 15:11:15;;;;;;;65.47;35.70;;;;;;;;;;4784872;29;20581;-74
2021/12/24 15:13:44;;;;;;;61.97;32.80;;;;;;;;;;4788020;29;20044;-72
2021/12/24 15:16:16;;;;;;;50.53;30.75;;;;;;;;;;4803575;29;20122;-73
2021/12/24 15:18:44;;;;;;;;;;;;;;;;;;4794464;29;20519;-73
2021/12/24 15:21:11;;;;;;;66.15;35.65;;;;;;;;;;4781576;29;20019;-73
2021/12/24 15:23:39;;;;;;;75.65;41.42;;;;;;;;;;4784350;29;20057;-73
2021/12/24 15:26:06;;;;;;;72.10;43.35;;;;;;;;;;4792138;29;20082;-73
2021/12/24 15:28:38;;;;;;;108.68;53.28;;;;;;;;;;4793459;29;20074;-72
2021/12/24 15:31:06;;;;;;;91.22;45.50;;;;;;;;;;4798298;29;20599;-72
2021/12/24 15:33:33;;;;;;;61.92;35.28;;;;;;;;;;4793595;29;20055;-74
2021/12/24 15:36:01;;;;;;;58.55;36.63;;;;;;;;;;4794658;29;20126;-73
2021/12/24 15:38:28;;;;;;;86.20;42.50;;;;;;;;;;4795340;29;20485;-72
2021/12/24 15:40:56;;;;;;;83.38;41.72;;;;;;;;;;4799198;29;20054;-72
2021/12/24 15:43:24;;;;;;;68.13;39.45;;;;;;;;;;4787670;29;20684;-72
2021/12/24 15:45:52;;;;;;;82.70;43.47;;;;;;;;;;4788446;29;20577;-74
2021/12/24 15:48:21;;;;;;;64.03;36.42;;;;;;;;;;4792063;29;20167;-72
2021/12/24 15:50:49;;;;;;;51.25;31.27;;;;;;;;;;4787277;29;20051;-74
2021/12/24 15:53:16;;;;;;;64.15;40.35;;;;;;;;;;4793699;29;20078;-72
2021/12/24 15:55:44;;;;;;;65.80;38.75;;;;;;;;;;4798512;29;20079;-73
2021/12/24 15:58:12;;;;;;;71.32;45.60;;;;;;;;;;4796893;29;20067;-73
2021/12/24 16:00:49;;;;;;;72.35;45.42;;;;;;;;;;4785133;29;20059;-72
2021/12/24 16:03:17;;;;;;;92.80;51.85;;;;;;;;;;4792084;29;20703;-73
2021/12/24 16:05:46;;;;;;;97.07;52.65;;;;;;;;;;4785150;30;20079;-72
2021/12/24 16:08:14;;;;;;;90.07;48.60;;;;;;;;;;4791820;29;20078;-72
2021/12/24 16:10:41;;;;;;;76.25;41.50;;;;;;;;;;4788089;29;20039;-73
2021/12/24 16:13:09;;;;;;;63.42;38.17;;;;;;;;;;4782928;30;20306;-71
2021/12/24 16:15:44;;;;;;;89.68;48.25;;;;;;;;;;4784726;29;20138;-72
2021/12/24 16:18:11;;;;;;;75.70;40.08;;;;;;;;;;4784260;30;20501;-72
2021/12/24 16:20:39;;;;;;;71.32;40.67;;;;;;;;;;4782000;30;20451;-71
2021/12/24 16:23:07;;;;;;;86.43;44.05;;;;;;;;;;4784726;29;20104;-72
2021/12/24 16:25:35;;;;;;;55.85;36.03;;;;;;;;;;4782087;30;20061;-72
2021/12/24 16:28:05;;;;;;;72.78;41.40;;;;;;;;;;4765022;30;20494;-72
2021/12/24 16:30:33;;;;;;;74.13;39.75;;;;;;;;;;4779551;29;20146;-73
2021/12/24 16:33:00;;;;;;;58.08;35.45;;;;;;;;;;4781082;29;20111;-73
2021/12/24 16:35:29;;;;;;;64.05;36.92;;;;;;;;;;4767998;30;20103;-72
2021/12/24 16:37:57;;;;;;;104.97;49.28;;;;;;;;;;4752258;30;20051;-74